createdAt,value
2023-01-21T00:01:09.310Z,102664.03
2023-01-21T00:03:36.067Z,102671.34
2023-01-21T00:06:03.121Z,102665.31
2023-01-21T00:08:29.636Z,102668.03
2023-01-21T00:10:56.246Z,102668.47
2023-01-21T00:13:23.082Z,102664.72
2023-01-21T00:15:49.762Z,102672.25
2023-01-21T00:18:16.255Z,102669.78
2023-01-21T00:20:42.811Z,102671.06
2023-01-21T00:23:10.912Z,102678.16
2023-01-21T00:25:37.476Z,102676.75
2023-01-21T00:28:04.137Z,102687.81
2023-01-21T00:30:30.746Z,102681.56
2023-01-21T00:32:57.245Z,102694.06
2023-01-21T00:35:23.814Z,102693.88
2023-01-21T00:37:53.397Z,102709.34
2023-01-21T00:40:20.301Z,102709.56
2023-01-21T00:42:46.811Z,102721.47
2023-01-21T00:45:13.353Z,102722.56
2023-01-21T00:47:40.177Z,102725.47
2023-01-21T00:50:07.400Z,102718.78
2023-01-21T00:52:33.957Z,102723.38
2023-01-21T00:55:00.456Z,102724.44
2023-01-21T00:57:26.986Z,102724.91
2023-01-21T00:59:53.781Z,102732.41
2023-01-21T01:02:20.385Z,102733.50
2023-01-21T01:04:47.038Z,102730.78
2023-01-21T01:07:13.508Z,102735.59
2023-01-21T01:09:40.211Z,102735.81
2023-01-21T01:12:07.214Z,102740.44
2023-01-21T01:14:33.679Z,102750.03
2023-01-21T01:17:00.233Z,102752.13
2023-01-21T01:19:26.861Z,102742.53
2023-01-21T01:21:53.461Z,102748.81
2023-01-21T01:24:20.092Z,102750.69
2023-01-21T01:26:46.716Z,102752.81
2023-01-21T01:29:13.646Z,102758.25
2023-01-21T01:31:40.302Z,102760.72
2023-01-21T01:34:06.884Z,102768.03
2023-01-21T01:36:33.437Z,102773.47
2023-01-21T01:38:59.977Z,102774.75
2023-01-21T01:41:29.962Z,102779.34
2023-01-21T01:43:58.771Z,102785.59
2023-01-21T01:46:30.641Z,102786.69
2023-01-21T01:49:26.394Z,102792.09
2023-01-21T01:52:04.871Z,102795.66
2023-01-21T01:54:53.546Z,102802.97
2023-01-21T01:57:23.727Z,102801.31
2023-01-21T01:59:51.081Z,102807.81
2023-01-21T02:02:20.060Z,102810.34
2023-01-21T02:04:58.231Z,102822.44
2023-01-21T02:07:29.069Z,102829.38
2023-01-21T02:09:55.728Z,102827.94
2023-01-21T02:12:22.692Z,102833.59
2023-01-21T02:14:49.933Z,102831.69
2023-01-21T02:17:40.879Z,102836.97
2023-01-21T02:20:13.413Z,102835.09
2023-01-21T02:22:56.164Z,102837.22
2023-01-21T02:25:48.093Z,102842.41
2023-01-21T02:28:55.474Z,102849.34
2023-01-21T02:31:50.129Z,102858.53
2023-01-21T02:34:22.664Z,102862.06
2023-01-21T02:37:12.315Z,102864.41
2023-01-21T02:39:57.329Z,102876.50
2023-01-21T02:42:49.082Z,102889.03
2023-01-21T02:45:37.969Z,102879.22
2023-01-21T02:48:29.656Z,102880.47
2023-01-21T02:50:56.598Z,102890.31
2023-01-21T02:53:29.983Z,102901.38
2023-01-21T02:56:01.335Z,102898.44
2023-01-21T02:58:32.044Z,102913.06
2023-01-21T03:01:04.485Z,102903.25
2023-01-21T03:03:56.116Z,102908.91
2023-01-21T03:06:52.727Z,102897.44
2023-01-21T03:09:28.995Z,102907.84
2023-01-21T03:12:31.076Z,102910.56
2023-01-21T03:15:39.361Z,102912.66
2023-01-21T03:18:24.377Z,102904.75
2023-01-21T03:20:56.007Z,102912.28
2023-01-21T03:23:30.888Z,102913.56
2023-01-21T03:25:59.064Z,102917.91
2023-01-21T03:28:29.349Z,102931.72
2023-01-21T03:31:05.485Z,102929.00
2023-01-21T03:33:36.028Z,102920.22
2023-01-21T03:36:14.973Z,102935.66
2023-01-21T03:38:52.785Z,102941.09
2023-01-21T03:41:34.073Z,102935.44
2023-01-21T03:44:00.708Z,102935.88
2023-01-21T03:46:37.302Z,102936.09
2023-01-21T03:49:29.188Z,102942.59
2023-01-21T03:51:59.047Z,102930.91
2023-01-21T03:54:25.694Z,102933.81
2023-01-21T03:56:52.289Z,102926.09
2023-01-21T03:59:18.900Z,102925.06
2023-01-21T04:01:45.565Z,102934.47
2023-01-21T04:04:12.091Z,102936.13
2023-01-21T04:06:38.556Z,102941.78
2023-01-21T04:09:06.364Z,102936.38
2023-01-21T04:11:33.467Z,102939.28
2023-01-21T04:14:00.325Z,102950.75
2023-01-21T04:16:26.873Z,102946.38
2023-01-21T04:18:54.135Z,102951.19
2023-01-21T04:21:20.634Z,102952.25
2023-01-21T04:23:47.107Z,102958.06
2023-01-21T04:26:13.689Z,102960.00
2023-01-21T04:28:40.168Z,102955.81
2023-01-21T04:31:06.872Z,102957.47
2023-01-21T04:33:33.371Z,102963.13
2023-01-21T04:36:00.933Z,102961.66
2023-01-21T04:38:28.218Z,102965.44
2023-01-21T04:40:54.804Z,102980.25
2023-01-21T04:43:21.371Z,102970.06
2023-01-21T04:45:47.967Z,102975.91
2023-01-21T04:48:14.568Z,102972.13
2023-01-21T04:50:41.049Z,102970.69
2023-01-21T04:53:07.892Z,102980.50
2023-01-21T04:55:34.616Z,102979.88
2023-01-21T04:58:01.082Z,102978.00
2023-01-21T05:00:27.731Z,102991.31
2023-01-21T05:02:54.393Z,102991.72
2023-01-21T05:05:21.048Z,102997.97
2023-01-21T05:07:47.527Z,102993.94
2023-01-21T05:10:18.117Z,102986.16
2023-01-21T05:12:44.796Z,102984.44
2023-01-21T05:15:12.013Z,102975.75
2023-01-21T05:17:38.826Z,102978.84
2023-01-21T05:20:06.080Z,102987.34
2023-01-21T05:22:32.621Z,102987.50
2023-01-21T05:25:00.527Z,102983.72
2023-01-21T05:27:27.762Z,102987.69
2023-01-21T05:29:54.280Z,102985.41
2023-01-21T05:32:20.756Z,103005.09
2023-01-21T05:34:47.342Z,103000.47
2023-01-21T05:37:13.884Z,103008.44
2023-01-21T05:39:40.484Z,103022.25
2023-01-21T05:42:07.182Z,103028.97
2023-01-21T05:44:33.794Z,103020.41
2023-01-21T05:47:00.279Z,103018.75
2023-01-21T05:49:26.835Z,103029.84
2023-01-21T05:51:53.296Z,103035.06
2023-01-21T05:54:19.950Z,103035.50
2023-01-21T05:56:46.409Z,103036.13
2023-01-21T05:59:12.922Z,103028.13
2023-01-21T06:01:39.416Z,103045.00
2023-01-21T06:04:05.948Z,103048.72
2023-01-21T06:06:32.470Z,103048.50
2023-01-21T06:08:58.999Z,103055.22
2023-01-21T06:11:25.512Z,103070.91
2023-01-21T06:13:52.011Z,103069.25
2023-01-21T06:16:18.601Z,103068.41
2023-01-21T06:18:45.258Z,103079.50
2023-01-21T06:21:11.901Z,103081.63
2023-01-21T06:23:38.519Z,103088.94
2023-01-21T06:26:05.223Z,103092.69
2023-01-21T06:28:31.773Z,103092.69
2023-01-21T06:30:58.673Z,103087.25
2023-01-21T06:33:25.435Z,103099.19
2023-01-21T06:35:51.956Z,103100.25
2023-01-21T06:38:18.539Z,103111.69
2023-01-21T06:40:45.056Z,103097.25
2023-01-21T06:43:11.615Z,103100.53
2023-01-21T06:45:38.149Z,103102.81
2023-01-21T06:48:04.937Z,103095.50
2023-01-21T06:50:31.426Z,103114.75
2023-01-21T06:52:58.043Z,103107.44
2023-01-21T06:55:24.542Z,103112.47
2023-01-21T06:57:51.055Z,103112.44
2023-01-21T07:00:19.218Z,103118.19
2023-01-21T07:02:45.893Z,103114.22
2023-01-21T07:05:15.487Z,103129.06
2023-01-21T07:07:42.421Z,103130.38
2023-01-21T07:10:09.799Z,103127.84
2023-01-21T07:12:36.324Z,103131.84
2023-01-21T07:15:02.829Z,103138.78
2023-01-21T07:17:29.721Z,103152.81
2023-01-21T07:19:56.207Z,103144.44
2023-01-21T07:22:22.687Z,103157.59
2023-01-21T07:24:49.166Z,103155.25
2023-01-21T07:27:16.185Z,103146.28
2023-01-21T07:29:42.897Z,103152.78
2023-01-21T07:32:09.446Z,103152.38
2023-01-21T07:34:36.037Z,103156.97
2023-01-21T07:37:02.486Z,103157.81
2023-01-21T07:39:29.020Z,103159.91
2023-01-21T07:41:55.538Z,103172.66
2023-01-21T07:44:22.069Z,103154.06
2023-01-21T07:46:48.746Z,103166.41
2023-01-21T07:49:17.394Z,103164.50
2023-01-21T07:51:45.355Z,103168.28
2023-01-21T07:54:12.610Z,103178.94
2023-01-21T07:56:39.292Z,103176.03
2023-01-21T07:59:06.405Z,103186.91
2023-01-21T08:01:33.093Z,103192.13
2023-01-21T08:04:00.058Z,103204.03
2023-01-21T08:06:26.839Z,103196.47
2023-01-21T08:08:53.312Z,103196.91
2023-01-21T08:11:19.872Z,103202.34
2023-01-21T08:13:46.419Z,103215.94
2023-01-21T08:16:13.693Z,103213.44
2023-01-21T08:18:40.481Z,103220.75
2023-01-21T08:21:07.006Z,103234.56
2023-01-21T08:23:33.501Z,103229.13
2023-01-21T08:26:02.736Z,103227.44
2023-01-21T08:28:29.227Z,103233.69
2023-01-21T08:31:03.209Z,103235.78
2023-01-21T08:33:30.222Z,103230.81
2023-01-21T08:36:01.229Z,103240.84
2023-01-21T08:38:27.794Z,103237.69
2023-01-21T08:40:55.791Z,103241.19
2023-01-21T08:43:22.243Z,103247.25
2023-01-21T08:45:49.189Z,103247.00
2023-01-21T08:48:15.693Z,103247.84
2023-01-21T08:50:42.614Z,103254.75
2023-01-21T08:53:10.983Z,103259.56
2023-01-21T08:55:37.591Z,103261.88
2023-01-21T08:58:04.325Z,103259.16
2023-01-21T09:00:31.032Z,103260.22
2023-01-21T09:02:59.372Z,103260.84
2023-01-21T09:05:26.019Z,103262.09
2023-01-21T09:07:52.495Z,103268.19
2023-01-21T09:10:38.111Z,103278.22
2023-01-21T09:13:06.364Z,103271.34
2023-01-21T09:15:44.429Z,103269.66
2023-01-21T09:18:11.100Z,103268.38
2023-01-21T09:20:37.877Z,103271.50
2023-01-21T09:23:24.358Z,103275.47
2023-01-21T09:26:00.601Z,103268.75
2023-01-21T09:28:27.693Z,103273.81
2023-01-21T09:30:59.011Z,103271.31
2023-01-21T09:33:27.074Z,103278.00
2023-01-21T09:35:59.050Z,103274.03
2023-01-21T09:38:26.654Z,103276.75
2023-01-21T09:40:53.730Z,103274.19
2023-01-21T09:43:28.762Z,103281.97
2023-01-21T09:46:00.391Z,103291.34
2023-01-21T09:48:41.945Z,103295.56
2023-01-21T09:51:26.133Z,103297.22
2023-01-21T09:53:56.048Z,103295.72
2023-01-21T09:56:35.665Z,103298.44
2023-01-21T09:59:15.048Z,103294.91
2023-01-21T10:01:43.075Z,103293.81
2023-01-21T10:04:41.813Z,103299.66
2023-01-21T10:07:34.197Z,103300.03
2023-01-21T10:10:16.137Z,103311.50
2023-01-21T10:13:03.927Z,103306.88
2023-01-21T10:15:42.371Z,103312.72
2023-01-21T10:18:40.180Z,103312.69
2023-01-21T10:21:32.168Z,103305.34
2023-01-21T10:24:04.627Z,103304.50
2023-01-21T10:26:34.657Z,103301.06
2023-01-21T10:29:01.696Z,103312.56
2023-01-21T10:31:32.764Z,103315.06
2023-01-21T10:33:59.559Z,103308.16
2023-01-21T10:37:13.035Z,103307.72
2023-01-21T10:40:12.122Z,103308.28
2023-01-21T10:42:56.940Z,103304.09
2023-01-21T10:45:40.883Z,103306.81
2023-01-21T10:48:13.739Z,103311.19
2023-01-21T10:51:00.926Z,103315.22
2023-01-21T10:53:42.173Z,103315.50
2023-01-21T10:56:42.831Z,103317.56
2023-01-21T10:59:12.066Z,103315.44
2023-01-21T11:02:15.067Z,103316.28
2023-01-21T11:04:41.971Z,103317.31
2023-01-21T11:07:14.376Z,103316.72
2023-01-21T11:09:46.795Z,103325.09
2023-01-21T11:12:17.550Z,103320.94
2023-01-21T11:14:49.162Z,103327.63
2023-01-21T11:17:30.944Z,103331.53
2023-01-21T11:20:04.938Z,103328.16
2023-01-21T11:22:32.596Z,103337.41
2023-01-21T11:25:00.458Z,103325.00
2023-01-21T11:27:36.934Z,103329.38
2023-01-21T11:30:20.897Z,103331.06
2023-01-21T11:32:52.015Z,103337.78
2023-01-21T11:35:23.140Z,103349.72
2023-01-21T11:37:49.731Z,103343.03
2023-01-21T11:40:24.039Z,103345.13
2023-01-21T11:42:53.383Z,103345.13
2023-01-21T11:45:26.623Z,103349.75
2023-01-21T11:47:54.057Z,103342.03
2023-01-21T11:50:40.127Z,103340.34
2023-01-21T11:53:06.705Z,103343.91
2023-01-21T11:55:59.748Z,103336.13
2023-01-21T11:58:31.024Z,103348.06
2023-01-21T12:01:04.222Z,103350.16
2023-01-21T12:03:48.688Z,103346.41
2023-01-21T12:06:26.504Z,103349.72
2023-01-21T12:08:56.547Z,103349.72
2023-01-21T12:11:26.931Z,103345.34
2023-01-21T12:14:36.135Z,103348.69
2023-01-21T12:17:19.815Z,103340.72
2023-01-21T12:19:52.540Z,103346.16
2023-01-21T12:22:40.492Z,103342.63
2023-01-21T12:25:17.591Z,103339.06
2023-01-21T12:27:49.265Z,103333.38
2023-01-21T12:30:39.088Z,103322.88
2023-01-21T12:33:21.991Z,103331.88
2023-01-21T12:35:58.933Z,103334.41
2023-01-21T12:38:32.336Z,103331.06
2023-01-21T12:41:08.435Z,103335.47
2023-01-21T12:43:38.334Z,103335.47
2023-01-21T12:46:20.853Z,103333.09
2023-01-21T12:49:12.662Z,103332.28
2023-01-21T12:51:49.829Z,103327.66
2023-01-21T12:54:36.233Z,103325.56
2023-01-21T12:57:44.503Z,103322.84
2023-01-21T13:00:39.153Z,103324.50
2023-01-21T13:03:08.718Z,103322.41
2023-01-21T13:05:43.542Z,103320.28
2023-01-21T13:08:31.631Z,103314.94
2023-01-21T13:11:06.067Z,103320.59
2023-01-21T13:13:38.322Z,103319.34
2023-01-21T13:16:10.248Z,103320.13
2023-01-21T13:18:42.808Z,103316.72
2023-01-21T13:21:18.957Z,103320.03
2023-01-21T13:24:04.053Z,103328.00
2023-01-21T13:26:43.719Z,103332.78
2023-01-21T13:29:14.769Z,103325.22
2023-01-21T13:31:53.106Z,103320.59
2023-01-21T13:34:50.788Z,103320.81
2023-01-21T13:37:17.230Z,103327.72
2023-01-21T13:39:53.624Z,103318.69
2023-01-21T13:42:53.626Z,103321.44
2023-01-21T13:46:11.438Z,103317.88
2023-01-21T13:48:59.550Z,103323.09
2023-01-21T13:51:35.264Z,103323.09
2023-01-21T13:54:23.205Z,103330.00
2023-01-21T13:57:06.880Z,103335.66
2023-01-21T13:59:51.284Z,103333.53
2023-01-21T14:02:30.423Z,103337.94
2023-01-21T14:05:20.476Z,103344.22
2023-01-21T14:08:12.099Z,103351.34
2023-01-21T14:10:41.670Z,103344.81
2023-01-21T14:13:35.988Z,103351.09
2023-01-21T14:16:22.698Z,103348.16
2023-01-21T14:19:07.236Z,103353.97
2023-01-21T14:21:46.027Z,103349.59
2023-01-21T14:24:15.350Z,103346.44
2023-01-21T14:27:03.283Z,103355.44
2023-01-21T14:29:46.843Z,103361.72
2023-01-21T14:32:20.519Z,103363.38
2023-01-21T14:35:08.163Z,103358.56
2023-01-21T14:37:44.170Z,103370.06
2023-01-21T14:40:20.152Z,103365.41
2023-01-21T14:42:49.270Z,103369.44
2023-01-21T14:45:35.955Z,103366.47
2023-01-21T14:48:28.216Z,103367.53
2023-01-21T14:51:08.903Z,103372.97
2023-01-21T14:54:03.964Z,103367.53
2023-01-21T14:56:34.900Z,103379.25
2023-01-21T14:59:04.977Z,103378.19
2023-01-21T15:01:44.870Z,103379.25
2023-01-21T15:04:24.926Z,103379.25
2023-01-21T15:07:01.298Z,103376.53
2023-01-21T15:09:37.871Z,103382.00
2023-01-21T15:12:18.043Z,103383.88
2023-01-21T15:14:45.981Z,103389.09
2023-01-21T15:17:50.160Z,103385.34
2023-01-21T15:20:52.433Z,103378.44
2023-01-21T15:23:30.324Z,103388.91
2023-01-21T15:26:09.312Z,103385.34
2023-01-21T15:28:40.731Z,103392.22
2023-01-21T15:31:10.373Z,103396.00
2023-01-21T15:33:42.684Z,103400.84
2023-01-21T15:36:20.401Z,103401.69
2023-01-21T15:38:48.649Z,103394.06
2023-01-21T15:41:28.344Z,103395.25
2023-01-21T15:44:12.374Z,103395.88
2023-01-21T15:46:50.311Z,103399.88
2023-01-21T15:49:54.393Z,103398.44
2023-01-21T15:52:44.023Z,103413.13
2023-01-21T15:55:41.267Z,103416.94
2023-01-21T15:58:16.785Z,103415.88
2023-01-21T16:00:49.492Z,103425.31
2023-01-21T16:03:25.096Z,103426.63
2023-01-21T16:06:24.980Z,103424.09
2023-01-21T16:09:05.676Z,103428.97
2023-01-21T16:11:40.425Z,103431.06
2023-01-21T16:14:35.459Z,103432.97
2023-01-21T16:17:42.467Z,103434.84
2023-01-21T16:20:11.871Z,103436.75
2023-01-21T16:22:42.298Z,103435.91
2023-01-21T16:25:13.501Z,103431.09
2023-01-21T16:27:46.134Z,103445.53
2023-01-21T16:30:19.904Z,103449.13
2023-01-21T16:32:47.111Z,103454.38
2023-01-21T16:35:13.979Z,103450.81
2023-01-21T16:37:43.664Z,103452.47
2023-01-21T16:40:25.645Z,103455.00
2023-01-21T16:43:26.031Z,103446.41
2023-01-21T16:46:01.039Z,103455.00
2023-01-21T16:48:31.213Z,103449.31
2023-01-21T16:50:58.964Z,103446.81
2023-01-21T16:53:25.648Z,103461.06
2023-01-21T16:55:59.686Z,103452.63
2023-01-21T16:58:31.712Z,103464.84
2023-01-21T17:01:00.322Z,103463.19
2023-01-21T17:03:28.044Z,103460.22
2023-01-21T17:05:59.133Z,103466.13
2023-01-21T17:08:26.463Z,103455.22
2023-01-21T17:11:10.893Z,103466.34
2023-01-21T17:13:41.017Z,103460.91
2023-01-21T17:16:25.050Z,103467.34
2023-01-21T17:19:33.799Z,103475.94
2023-01-21T17:22:03.975Z,103480.38
2023-01-21T17:24:43.851Z,103481.41
2023-01-21T17:27:15.929Z,103478.91
2023-01-21T17:29:44.564Z,103486.84
2023-01-21T17:32:32.340Z,103484.78
2023-01-21T17:35:10.931Z,103483.94
2023-01-21T17:37:51.028Z,103479.97
2023-01-21T17:40:28.831Z,103478.50
2023-01-21T17:42:56.593Z,103483.53
2023-01-21T17:45:37.485Z,103485.59
2023-01-21T17:48:10.188Z,103490.22
2023-01-21T17:50:46.344Z,103478.94
2023-01-21T17:53:26.882Z,103484.63
2023-01-21T17:55:58.356Z,103474.97
2023-01-21T17:58:57.504Z,103476.38
2023-01-21T18:01:24.087Z,103469.91
2023-01-21T18:03:50.733Z,103471.81
2023-01-21T18:06:20.752Z,103480.16
2023-01-21T18:08:47.263Z,103471.81
2023-01-21T18:11:16.115Z,103474.31
2023-01-21T18:13:42.668Z,103482.72
2023-01-21T18:16:09.384Z,103486.28
2023-01-21T18:18:38.114Z,103478.91
2023-01-21T18:21:05.252Z,103501.94
2023-01-21T18:23:32.396Z,103494.19
2023-01-21T18:25:59.067Z,103496.94
2023-01-21T18:28:28.397Z,103491.88
2023-01-21T18:30:57.313Z,103496.50
2023-01-21T18:33:24.586Z,103498.41
2023-01-21T18:35:52.479Z,103502.19
2023-01-21T18:38:27.415Z,103498.63
2023-01-21T18:40:55.768Z,103494.19
2023-01-21T18:43:23.242Z,103499.88
2023-01-21T18:45:49.753Z,103507.25
2023-01-21T18:48:17.392Z,103499.47
2023-01-21T18:50:44.086Z,103509.31
2023-01-21T18:53:12.903Z,103505.97
2023-01-21T18:55:43.891Z,103513.31
2023-01-21T18:58:14.153Z,103510.13
2023-01-21T19:00:41.559Z,103516.25
2023-01-21T19:03:14.042Z,103512.88
2023-01-21T19:05:43.499Z,103515.00
2023-01-21T19:08:24.489Z,103514.16
2023-01-21T19:10:51.830Z,103505.34
2023-01-21T19:13:18.758Z,103509.75
2023-01-21T19:15:47.043Z,103508.91
2023-01-21T19:18:15.444Z,103508.47
2023-01-21T19:20:43.047Z,103507.00
2023-01-21T19:23:17.956Z,103509.97
2023-01-21T19:25:52.608Z,103519.16
2023-01-21T19:28:19.715Z,103516.66
2023-01-21T19:30:46.488Z,103505.97
2023-01-21T19:33:13.115Z,103511.44
2023-01-21T19:35:43.953Z,103510.56
2023-01-21T19:38:21.817Z,103517.47
2023-01-21T19:40:48.367Z,103508.72
2023-01-21T19:43:17.848Z,103514.16
2023-01-21T19:45:44.504Z,103517.47
2023-01-21T19:48:19.824Z,103514.16
2023-01-21T19:50:46.459Z,103513.09
2023-01-21T19:53:15.610Z,103508.72
2023-01-21T19:55:43.422Z,103508.91
2023-01-21T19:58:22.293Z,103501.97
2023-01-21T20:00:51.142Z,103509.31
2023-01-21T20:03:19.462Z,103506.56
2023-01-21T20:05:48.679Z,103503.25
2023-01-21T20:08:24.728Z,103508.72
2023-01-21T20:10:51.243Z,103505.34
2023-01-21T20:13:18.094Z,103505.34
2023-01-21T20:15:46.298Z,103513.53
2023-01-21T20:18:22.300Z,103512.88
2023-01-21T20:20:49.677Z,103512.03
2023-01-21T20:23:17.274Z,103516.66
2023-01-21T20:25:45.506Z,103521.28
2023-01-21T20:28:27.484Z,103519.63
2023-01-21T20:30:54.819Z,103525.06
2023-01-21T20:33:23.884Z,103521.47
2023-01-21T20:35:55.444Z,103520.66
2023-01-21T20:38:30.139Z,103520.44
2023-01-21T20:40:57.820Z,103514.16
2023-01-21T20:43:24.811Z,103513.31
2023-01-21T20:45:52.480Z,103518.16
2023-01-21T20:48:41.302Z,103517.53
2023-01-21T20:51:08.195Z,103519.84
2023-01-21T20:53:34.983Z,103518.44
2023-01-21T20:56:24.691Z,103521.34
2023-01-21T20:58:51.273Z,103534.38
2023-01-21T21:01:20.215Z,103525.56
2023-01-21T21:03:47.155Z,103532.75
2023-01-21T21:06:16.056Z,103531.69
2023-01-21T21:08:42.857Z,103524.78
2023-01-21T21:11:10.376Z,103519.34
2023-01-21T21:13:37.451Z,103530.69
2023-01-21T21:16:16.999Z,103541.19
2023-01-21T21:18:43.528Z,103534.28
2023-01-21T21:21:12.455Z,103530.31
2023-01-21T21:23:39.006Z,103530.75
2023-01-21T21:26:15.203Z,103526.38
2023-01-21T21:28:41.691Z,103531.81
2023-01-21T21:31:14.895Z,103530.59
2023-01-21T21:33:42.289Z,103540.03
2023-01-21T21:36:20.679Z,103527.66
2023-01-21T21:38:48.993Z,103519.09
2023-01-21T21:41:36.477Z,103519.09
2023-01-21T21:44:04.858Z,103518.69
2023-01-21T21:46:50.483Z,103520.59
2023-01-21T21:49:16.985Z,103512.84
2023-01-21T21:51:45.599Z,103528.56
2023-01-21T21:54:14.033Z,103520.00
2023-01-21T21:56:40.643Z,103523.56
2023-01-21T21:59:07.452Z,103519.38
2023-01-21T22:01:36.033Z,103530.50
2023-01-21T22:04:03.863Z,103530.72
2023-01-21T22:06:31.225Z,103538.88
2023-01-21T22:09:00.880Z,103537.19
2023-01-21T22:11:28.569Z,103535.72
2023-01-21T22:13:57.520Z,103528.81
2023-01-21T22:16:26.948Z,103534.50
2023-01-21T22:18:54.676Z,103539.53
2023-01-21T22:21:27.243Z,103541.38
2023-01-21T22:23:54.820Z,103535.34
2023-01-21T22:26:23.736Z,103530.13
2023-01-21T22:28:53.913Z,103538.72
2023-01-21T22:31:28.939Z,103534.09
2023-01-21T22:33:57.072Z,103538.91
2023-01-21T22:36:26.545Z,103533.69
2023-01-21T22:38:53.248Z,103532.84
2023-01-21T22:41:22.655Z,103541.03
2023-01-21T22:43:50.485Z,103521.75
2023-01-21T22:46:31.644Z,103527.19
2023-01-21T22:48:58.665Z,103520.94
2023-01-21T22:51:25.501Z,103512.34
2023-01-21T22:53:52.892Z,103510.91
2023-01-21T22:56:25.345Z,103506.50
2023-01-21T22:58:58.687Z,103506.72
2023-01-21T23:01:27.910Z,103507.97
2023-01-21T23:03:54.896Z,103497.09
2023-01-21T23:06:21.631Z,103497.31
2023-01-21T23:08:48.528Z,103495.44
2023-01-21T23:11:16.310Z,103493.13
2023-01-21T23:13:43.333Z,103496.69
2023-01-21T23:16:13.529Z,103500.06
2023-01-21T23:18:41.968Z,103507.16
2023-01-21T23:21:17.741Z,103492.13
2023-01-21T23:23:44.310Z,103492.13
2023-01-21T23:26:11.639Z,103488.75
2023-01-21T23:28:38.372Z,103493.38
2023-01-21T23:31:07.599Z,103493.59
2023-01-21T23:33:36.413Z,103501.13
2023-01-21T23:36:03.388Z,103495.47
2023-01-21T23:38:30.368Z,103485.84
2023-01-21T23:40:57.381Z,103496.94
2023-01-21T23:43:27.872Z,103489.00
2023-01-21T23:45:54.324Z,103493.81
2023-01-21T23:48:21.754Z,103502.19
2023-01-21T23:50:48.591Z,103494.44
2023-01-21T23:53:15.575Z,103494.44
2023-01-21T23:55:42.224Z,103485.44
2023-01-21T23:58:08.805Z,103495.72
